MMDO/DGO METAR and TAF weather

Enter ICAO airport designator
Station Type Date Time Source
MMDO METAR 2020/07/02 17:56 UTC NOAA

MMDO 021756Z 28005KT 9SM SCT015 OVC070 20/12 A3029 RMK SLP117 57009 915 8/47/ MSGTX MMMX


Station Type Date Time Source
MMDO Decoded METAR 2020/07/02 17:56 UTC NOAA

Durango Airport, Mexico (MMDO) 24-08N 104-32W
Jul 02, 2020 - 01:56 PM EDT / 2020.07.02 1756 UTC
Wind: from the W (280 degrees) at 6 MPH (5 KT):0
Visibility: 9 mile(s):0
Sky conditions: overcast
Temperature: 68 F (20 C)
Dew Point: 53 F (12 C)
Relative Humidity: 59%
Pressure (altimeter): 30.29 in. Hg (1025 hPa)
Pressure tendency: 0.03 inches (0.9 hPa) lower than three hours ago
ob: MMDO 021756Z 28005KT 9SM SCT015 OVC070 20/12 A3029 RMK SLP117 57009 915 8/47/ MSGTX MMMX
cycle: 18

Station Type Date Time Source
MMDO TAF 2020/07/02 18:21 UTC NOAA

TAF MMDO 021718Z 0218/0318 10008KT P6SM BKN020 BKN070
BECMG 0220/0221 BKN020CB
TEMPO 0221/0301 3SM TSRA
FM030300 12005KT 5SM -RA BKN020 OVC070
BECMG 0305/0306 00000KT P6SM
TEMPO 0310/0314 3SM BR HZ
FM031700 10008KT P6SM SCT020 BKN080 BKN250

Example: see airport list